sensor_id;sensor_type;location;lat;lon;timestamp;P1;durP1;ratioP1;P2;durP2;ratioP2
66298;SDS011;53098;47.658;8.578;2022-12-18T00:00:14;33.27;;;18.50;;
66298;SDS011;53098;47.658;8.578;2022-12-18T00:02:39;33.70;;;18.40;;
66298;SDS011;53098;47.658;8.578;2022-12-18T00:05:05;30.67;;;16.83;;
66298;SDS011;53098;47.658;8.578;2022-12-18T00:07:30;32.60;;;17.70;;
66298;SDS011;53098;47.658;8.578;2022-12-18T00:09:55;34.53;;;17.60;;
66298;SDS011;53098;47.658;8.578;2022-12-18T00:12:21;33.07;;;16.80;;
66298;SDS011;53098;47.658;8.578;2022-12-18T00:14:46;37.20;;;18.13;;
66298;SDS011;53098;47.658;8.578;2022-12-18T00:17:11;35.33;;;19.37;;
66298;SDS011;53098;47.658;8.578;2022-12-18T00:19:36;36.07;;;18.97;;
66298;SDS011;53098;47.658;8.578;2022-12-18T00:22:02;33.97;;;18.03;;
66298;SDS011;53098;47.658;8.578;2022-12-18T00:24:27;38.95;;;19.23;;
66298;SDS011;53098;47.658;8.578;2022-12-18T00:26:52;36.43;;;18.90;;
66298;SDS011;53098;47.658;8.578;2022-12-18T00:29:18;37.03;;;17.97;;
66298;SDS011;53098;47.658;8.578;2022-12-18T00:31:43;39.20;;;19.87;;
66298;SDS011;53098;47.658;8.578;2022-12-18T00:34:11;38.90;;;20.30;;
66298;SDS011;53098;47.658;8.578;2022-12-18T00:36:37;41.58;;;20.77;;
66298;SDS011;53098;47.658;8.578;2022-12-18T00:39:04;40.40;;;19.88;;
66298;SDS011;53098;47.658;8.578;2022-12-18T00:41:29;45.70;;;19.67;;
66298;SDS011;53098;47.658;8.578;2022-12-18T00:43:54;40.17;;;19.27;;
66298;SDS011;53098;47.658;8.578;2022-12-18T00:46:19;39.67;;;21.53;;
66298;SDS011;53098;47.658;8.578;2022-12-18T00:48:45;44.97;;;21.43;;
66298;SDS011;53098;47.658;8.578;2022-12-18T00:51:10;41.10;;;20.90;;
66298;SDS011;53098;47.658;8.578;2022-12-18T00:53:35;37.87;;;19.73;;
66298;SDS011;53098;47.658;8.578;2022-12-18T00:56:00;46.17;;;21.33;;
66298;SDS011;53098;47.658;8.578;2022-12-18T00:58:26;45.20;;;22.77;;
66298;SDS011;53098;47.658;8.578;2022-12-18T01:00:51;45.17;;;23.83;;
66298;SDS011;53098;47.658;8.578;2022-12-18T01:03:16;43.90;;;21.13;;
66298;SDS011;53098;47.658;8.578;2022-12-18T01:05:42;43.20;;;21.50;;
66298;SDS011;53098;47.658;8.578;2022-12-18T01:08:07;45.53;;;21.52;;
66298;SDS011;53098;47.658;8.578;2022-12-18T01:10:32;44.73;;;22.20;;
66298;SDS011;53098;47.658;8.578;2022-12-18T01:12:57;46.30;;;22.20;;
66298;SDS011;53098;47.658;8.578;2022-12-18T01:15:23;44.33;;;21.83;;
66298;SDS011;53098;47.658;8.578;2022-12-18T01:17:48;46.43;;;21.57;;
66298;SDS011;53098;47.658;8.578;2022-12-18T01:20:13;42.37;;;20.83;;
66298;SDS011;53098;47.658;8.578;2022-12-18T01:22:39;50.37;;;23.20;;
66298;SDS011;53098;47.658;8.578;2022-12-18T01:25:04;41.07;;;21.43;;
66298;SDS011;53098;47.658;8.578;2022-12-18T01:27:30;47.90;;;23.50;;
66298;SDS011;53098;47.658;8.578;2022-12-18T01:29:55;52.42;;;23.20;;
66298;SDS011;53098;47.658;8.578;2022-12-18T01:32:20;45.67;;;22.50;;
66298;SDS011;53098;47.658;8.578;2022-12-18T01:34:45;52.77;;;24.00;;
66298;SDS011;53098;47.658;8.578;2022-12-18T01:37:11;50.67;;;23.73;;
66298;SDS011;53098;47.658;8.578;2022-12-18T01:39:36;50.97;;;24.80;;
66298;SDS011;53098;47.658;8.578;2022-12-18T01:42:09;54.67;;;23.30;;
66298;SDS011;53098;47.658;8.578;2022-12-18T01:49:59;50.83;;;24.02;;
66298;SDS011;53098;47.658;8.578;2022-12-18T01:52:26;51.58;;;24.52;;
66298;SDS011;53098;47.658;8.578;2022-12-18T01:54:53;51.28;;;23.13;;
66298;SDS011;53098;47.658;8.578;2022-12-18T01:57:19;59.10;;;25.42;;
66298;SDS011;53098;47.658;8.578;2022-12-18T01:59:45;52.33;;;23.77;;
66298;SDS011;53098;47.658;8.578;2022-12-18T02:02:12;60.70;;;24.95;;
66298;SDS011;53098;47.658;8.578;2022-12-18T02:04:38;55.90;;;27.38;;
66298;SDS011;53098;47.658;8.578;2022-12-18T02:07:50;60.90;;;27.15;;
66298;SDS011;53098;47.658;8.578;2022-12-18T02:12:21;54.05;;;24.02;;
66298;SDS011;53098;47.658;8.578;2022-12-18T02:15:06;54.75;;;23.83;;
66298;SDS011;53098;47.658;8.578;2022-12-18T02:17:45;56.22;;;24.02;;
66298;SDS011;53098;47.658;8.578;2022-12-18T02:27:34;64.53;;;26.50;;
66298;SDS011;53098;47.658;8.578;2022-12-18T02:30:00;54.78;;;25.45;;
66298;SDS011;53098;47.658;8.578;2022-12-18T02:32:31;57.08;;;25.55;;
66298;SDS011;53098;47.658;8.578;2022-12-18T02:34:57;56.03;;;25.55;;
66298;SDS011;53098;47.658;8.578;2022-12-18T02:37:23;52.80;;;24.25;;
66298;SDS011;53098;47.658;8.578;2022-12-18T02:39:51;59.35;;;25.52;;
66298;SDS011;53098;47.658;8.578;2022-12-18T02:42:17;57.50;;;26.15;;
66298;SDS011;53098;47.658;8.578;2022-12-18T02:44:46;56.17;;;24.38;;
66298;SDS011;53098;47.658;8.578;2022-12-18T02:47:12;56.70;;;24.23;;
66298;SDS011;53098;47.658;8.578;2022-12-18T02:49:51;57.95;;;23.20;;
66298;SDS011;53098;47.658;8.578;2022-12-18T02:52:24;59.38;;;24.52;;
66298;SDS011;53098;47.658;8.578;2022-12-18T02:57:24;52.00;;;22.80;;
66298;SDS011;53098;47.658;8.578;2022-12-18T03:02:26;50.42;;;22.60;;
66298;SDS011;53098;47.658;8.578;2022-12-18T03:05:15;54.20;;;22.83;;
66298;SDS011;53098;47.658;8.578;2022-12-18T03:07:42;56.90;;;24.23;;
66298;SDS011;53098;47.658;8.578;2022-12-18T03:10:09;51.15;;;22.48;;
66298;SDS011;53098;47.658;8.578;2022-12-18T03:12:37;61.08;;;25.15;;
66298;SDS011;53098;47.658;8.578;2022-12-18T03:15:06;57.72;;;23.40;;
66298;SDS011;53098;47.658;8.578;2022-12-18T03:17:33;55.25;;;24.10;;
66298;SDS011;53098;47.658;8.578;2022-12-18T03:20:00;61.85;;;24.20;;
66298;SDS011;53098;47.658;8.578;2022-12-18T03:22:27;56.28;;;24.02;;
66298;SDS011;53098;47.658;8.578;2022-12-18T03:24:54;59.67;;;25.55;;
66298;SDS011;53098;47.658;8.578;2022-12-18T03:27:21;57.28;;;25.05;;
66298;SDS011;53098;47.658;8.578;2022-12-18T03:29:48;58.97;;;24.10;;
66298;SDS011;53098;47.658;8.578;2022-12-18T03:32:16;68.22;;;25.40;;
66298;SDS011;53098;47.658;8.578;2022-12-18T03:34:43;59.40;;;24.88;;
66298;SDS011;53098;47.658;8.578;2022-12-18T03:37:11;62.28;;;24.73;;
66298;SDS011;53098;47.658;8.578;2022-12-18T03:39:36;59.27;;;23.83;;
66298;SDS011;53098;47.658;8.578;2022-12-18T03:42:10;64.15;;;24.88;;
66298;SDS011;53098;47.658;8.578;2022-12-18T03:44:42;68.72;;;25.42;;
66298;SDS011;53098;47.658;8.578;2022-12-18T03:52:30;56.67;;;23.73;;
66298;SDS011;53098;47.658;8.578;2022-12-18T03:54:59;60.55;;;24.00;;
66298;SDS011;53098;47.658;8.578;2022-12-18T03:57:27;62.35;;;27.77;;
66298;SDS011;53098;47.658;8.578;2022-12-18T04:00:00;62.95;;;25.02;;
66298;SDS011;53098;47.658;8.578;2022-12-18T04:02:27;62.60;;;26.20;;
66298;SDS011;53098;47.658;8.578;2022-12-18T04:04:53;58.20;;;24.48;;
66298;SDS011;53098;47.658;8.578;2022-12-18T04:07:20;63.25;;;25.38;;
66298;SDS011;53098;47.658;8.578;2022-12-18T04:09:46;72.25;;;27.58;;
66298;SDS011;53098;47.658;8.578;2022-12-18T04:12:12;62.78;;;25.60;;
66298;SDS011;53098;47.658;8.578;2022-12-18T04:14:37;59.57;;;24.53;;
66298;SDS011;53098;47.658;8.578;2022-12-18T04:17:03;67.03;;;25.53;;
66298;SDS011;53098;47.658;8.578;2022-12-18T04:19:28;60.33;;;25.88;;
66298;SDS011;53098;47.658;8.578;2022-12-18T04:21:53;63.83;;;26.00;;
66298;SDS011;53098;47.658;8.578;2022-12-18T04:24:18;62.53;;;25.00;;
66298;SDS011;53098;47.658;8.578;2022-12-18T04:26:44;62.87;;;24.83;;
66298;SDS011;53098;47.658;8.578;2022-12-18T04:29:09;64.80;;;24.27;;
66298;SDS011;53098;47.658;8.578;2022-12-18T04:31:34;61.63;;;23.80;;
66298;SDS011;53098;47.658;8.578;2022-12-18T04:34:00;69.17;;;28.80;;
66298;SDS011;53098;47.658;8.578;2022-12-18T04:36:25;62.40;;;25.13;;
66298;SDS011;53098;47.658;8.578;2022-12-18T04:38:50;63.23;;;25.03;;
66298;SDS011;53098;47.658;8.578;2022-12-18T04:41:15;61.90;;;26.43;;
66298;SDS011;53098;47.658;8.578;2022-12-18T04:43:41;62.28;;;24.60;;
66298;SDS011;53098;47.658;8.578;2022-12-18T04:46:08;58.20;;;23.97;;
66298;SDS011;53098;47.658;8.578;2022-12-18T04:48:34;65.55;;;27.27;;
66298;SDS011;53098;47.658;8.578;2022-12-18T04:51:00;62.47;;;25.60;;
66298;SDS011;53098;47.658;8.578;2022-12-18T04:53:25;63.07;;;24.47;;
66298;SDS011;53098;47.658;8.578;2022-12-18T04:55:50;63.43;;;24.80;;
66298;SDS011;53098;47.658;8.578;2022-12-18T04:58:15;65.50;;;24.13;;
66298;SDS011;53098;47.658;8.578;2022-12-18T05:00:40;66.63;;;25.63;;
66298;SDS011;53098;47.658;8.578;2022-12-18T05:03:06;65.63;;;24.73;;
66298;SDS011;53098;47.658;8.578;2022-12-18T05:05:31;68.10;;;24.63;;
66298;SDS011;53098;47.658;8.578;2022-12-18T05:07:56;52.53;;;23.77;;
66298;SDS011;53098;47.658;8.578;2022-12-18T05:10:21;57.73;;;23.10;;
66298;SDS011;53098;47.658;8.578;2022-12-18T05:12:47;62.20;;;23.20;;
66298;SDS011;53098;47.658;8.578;2022-12-18T05:15:12;58.30;;;24.43;;
66298;SDS011;53098;47.658;8.578;2022-12-18T05:17:37;57.87;;;23.37;;
66298;SDS011;53098;47.658;8.578;2022-12-18T05:20:02;59.33;;;23.20;;
66298;SDS011;53098;47.658;8.578;2022-12-18T05:22:28;66.45;;;25.70;;
66298;SDS011;53098;47.658;8.578;2022-12-18T05:24:53;56.90;;;24.37;;
66298;SDS011;53098;47.658;8.578;2022-12-18T05:27:18;53.50;;;22.87;;
66298;SDS011;53098;47.658;8.578;2022-12-18T05:29:43;57.03;;;23.93;;
66298;SDS011;53098;47.658;8.578;2022-12-18T05:32:09;58.67;;;24.47;;
66298;SDS011;53098;47.658;8.578;2022-12-18T05:34:34;63.83;;;24.23;;
66298;SDS011;53098;47.658;8.578;2022-12-18T05:36:59;64.90;;;24.80;;
66298;SDS011;53098;47.658;8.578;2022-12-18T05:39:24;60.93;;;24.00;;
66298;SDS011;53098;47.658;8.578;2022-12-18T05:41:50;58.00;;;23.40;;
66298;SDS011;53098;47.658;8.578;2022-12-18T05:44:15;63.38;;;23.65;;
66298;SDS011;53098;47.658;8.578;2022-12-18T05:46:40;64.07;;;24.10;;
66298;SDS011;53098;47.658;8.578;2022-12-18T05:49:05;60.57;;;23.97;;
66298;SDS011;53098;47.658;8.578;2022-12-18T05:51:31;58.80;;;23.80;;
66298;SDS011;53098;47.658;8.578;2022-12-18T05:53:56;61.60;;;26.07;;
66298;SDS011;53098;47.658;8.578;2022-12-18T05:56:21;61.90;;;23.37;;
66298;SDS011;53098;47.658;8.578;2022-12-18T05:58:47;63.60;;;26.13;;
66298;SDS011;53098;47.658;8.578;2022-12-18T06:01:18;63.45;;;23.75;;
66298;SDS011;53098;47.658;8.578;2022-12-18T06:03:44;56.85;;;23.85;;
66298;SDS011;53098;47.658;8.578;2022-12-18T06:06:13;58.83;;;24.10;;
66298;SDS011;53098;47.658;8.578;2022-12-18T06:08:38;62.05;;;24.42;;
66298;SDS011;53098;47.658;8.578;2022-12-18T06:11:04;57.23;;;23.63;;
66298;SDS011;53098;47.658;8.578;2022-12-18T06:13:29;69.53;;;27.60;;
66298;SDS011;53098;47.658;8.578;2022-12-18T06:15:54;67.77;;;29.30;;
66298;SDS011;53098;47.658;8.578;2022-12-18T06:18:19;66.60;;;28.63;;
66298;SDS011;53098;47.658;8.578;2022-12-18T06:20:45;63.58;;;26.02;;
66298;SDS011;53098;47.658;8.578;2022-12-18T06:23:10;59.33;;;23.60;;
66298;SDS011;53098;47.658;8.578;2022-12-18T06:25:37;62.10;;;24.80;;
66298;SDS011;53098;47.658;8.578;2022-12-18T06:28:02;62.50;;;25.35;;
66298;SDS011;53098;47.658;8.578;2022-12-18T06:30:28;69.18;;;24.55;;
66298;SDS011;53098;47.658;8.578;2022-12-18T06:32:53;61.47;;;24.23;;
66298;SDS011;53098;47.658;8.578;2022-12-18T06:35:18;61.50;;;25.20;;
66298;SDS011;53098;47.658;8.578;2022-12-18T06:37:43;55.93;;;24.13;;
66298;SDS011;53098;47.658;8.578;2022-12-18T06:40:09;57.13;;;23.90;;
66298;SDS011;53098;47.658;8.578;2022-12-18T06:42:34;61.33;;;24.08;;
66298;SDS011;53098;47.658;8.578;2022-12-18T06:45:00;61.42;;;24.05;;
66298;SDS011;53098;47.658;8.578;2022-12-18T06:47:25;58.17;;;24.13;;
66298;SDS011;53098;47.658;8.578;2022-12-18T06:49:50;62.73;;;24.73;;
66298;SDS011;53098;47.658;8.578;2022-12-18T06:52:15;58.90;;;23.90;;
66298;SDS011;53098;47.658;8.578;2022-12-18T06:54:41;63.13;;;23.93;;
66298;SDS011;53098;47.658;8.578;2022-12-18T06:57:06;60.13;;;23.60;;
66298;SDS011;53098;47.658;8.578;2022-12-18T06:59:31;56.33;;;24.53;;
66298;SDS011;53098;47.658;8.578;2022-12-18T07:01:56;58.00;;;25.50;;
66298;SDS011;53098;47.658;8.578;2022-12-18T07:04:22;63.17;;;24.03;;
66298;SDS011;53098;47.658;8.578;2022-12-18T07:06:47;57.20;;;24.30;;
66298;SDS011;53098;47.658;8.578;2022-12-18T07:09:12;59.60;;;25.30;;
66298;SDS011;53098;47.658;8.578;2022-12-18T07:11:37;58.07;;;24.07;;
66298;SDS011;53098;47.658;8.578;2022-12-18T07:14:03;50.73;;;23.77;;
66298;SDS011;53098;47.658;8.578;2022-12-18T07:16:28;52.60;;;24.17;;
66298;SDS011;53098;47.658;8.578;2022-12-18T07:18:54;55.17;;;24.43;;
66298;SDS011;53098;47.658;8.578;2022-12-18T07:21:19;58.38;;;25.70;;
66298;SDS011;53098;47.658;8.578;2022-12-18T07:23:45;55.70;;;23.10;;
66298;SDS011;53098;47.658;8.578;2022-12-18T07:26:11;61.92;;;24.77;;
66298;SDS011;53098;47.658;8.578;2022-12-18T07:28:37;54.10;;;22.52;;
66298;SDS011;53098;47.658;8.578;2022-12-18T07:31:06;56.58;;;25.58;;
66298;SDS011;53098;47.658;8.578;2022-12-18T07:33:32;58.15;;;23.75;;
66298;SDS011;53098;47.658;8.578;2022-12-18T07:35:58;53.13;;;23.35;;
66298;SDS011;53098;47.658;8.578;2022-12-18T07:38:24;58.63;;;24.50;;
66298;SDS011;53098;47.658;8.578;2022-12-18T07:40:49;54.77;;;25.17;;
66298;SDS011;53098;47.658;8.578;2022-12-18T07:43:14;55.20;;;23.60;;
66298;SDS011;53098;47.658;8.578;2022-12-18T07:45:40;60.27;;;26.63;;
66298;SDS011;53098;47.658;8.578;2022-12-18T07:48:05;56.30;;;24.40;;
66298;SDS011;53098;47.658;8.578;2022-12-18T07:50:30;45.50;;;21.77;;
66298;SDS011;53098;47.658;8.578;2022-12-18T07:52:55;52.80;;;22.90;;
66298;SDS011;53098;47.658;8.578;2022-12-18T07:55:21;57.50;;;23.73;;
66298;SDS011;53098;47.658;8.578;2022-12-18T07:57:46;56.60;;;24.63;;
66298;SDS011;53098;47.658;8.578;2022-12-18T08:00:11;55.00;;;23.27;;
66298;SDS011;53098;47.658;8.578;2022-12-18T08:02:36;51.05;;;22.42;;
66298;SDS011;53098;47.658;8.578;2022-12-18T08:05:02;49.40;;;23.67;;
66298;SDS011;53098;47.658;8.578;2022-12-18T08:07:27;53.00;;;23.10;;
66298;SDS011;53098;47.658;8.578;2022-12-18T08:09:52;50.33;;;23.13;;
66298;SDS011;53098;47.658;8.578;2022-12-18T08:12:18;51.53;;;24.05;;
66298;SDS011;53098;47.658;8.578;2022-12-18T08:14:43;51.60;;;23.43;;
66298;SDS011;53098;47.658;8.578;2022-12-18T08:17:08;51.77;;;21.83;;
66298;SDS011;53098;47.658;8.578;2022-12-18T08:19:33;54.97;;;24.10;;
66298;SDS011;53098;47.658;8.578;2022-12-18T08:21:59;51.37;;;21.90;;
66298;SDS011;53098;47.658;8.578;2022-12-18T08:24:24;50.67;;;22.90;;
66298;SDS011;53098;47.658;8.578;2022-12-18T08:26:49;52.20;;;23.60;;
66298;SDS011;53098;47.658;8.578;2022-12-18T08:29:14;51.20;;;21.70;;
66298;SDS011;53098;47.658;8.578;2022-12-18T08:31:39;51.17;;;23.00;;
66298;SDS011;53098;47.658;8.578;2022-12-18T08:34:05;49.07;;;22.00;;
66298;SDS011;53098;47.658;8.578;2022-12-18T08:36:30;50.13;;;23.53;;
66298;SDS011;53098;47.658;8.578;2022-12-18T08:38:56;58.80;;;23.47;;
66298;SDS011;53098;47.658;8.578;2022-12-18T08:41:22;57.92;;;24.23;;
66298;SDS011;53098;47.658;8.578;2022-12-18T08:43:47;50.83;;;22.38;;
66298;SDS011;53098;47.658;8.578;2022-12-18T08:46:13;56.83;;;23.85;;
66298;SDS011;53098;47.658;8.578;2022-12-18T08:48:38;51.10;;;21.45;;
66298;SDS011;53098;47.658;8.578;2022-12-18T08:51:04;55.67;;;23.67;;
66298;SDS011;53098;47.658;8.578;2022-12-18T08:53:29;49.67;;;22.65;;
66298;SDS011;53098;47.658;8.578;2022-12-18T08:55:56;47.63;;;21.80;;
66298;SDS011;53098;47.658;8.578;2022-12-18T08:58:21;48.00;;;23.98;;
66298;SDS011;53098;47.658;8.578;2022-12-18T09:00:46;48.63;;;21.03;;
66298;SDS011;53098;47.658;8.578;2022-12-18T09:03:12;48.27;;;23.43;;
66298;SDS011;53098;47.658;8.578;2022-12-18T09:05:38;49.20;;;23.45;;
66298;SDS011;53098;47.658;8.578;2022-12-18T09:08:03;50.37;;;22.63;;
66298;SDS011;53098;47.658;8.578;2022-12-18T09:10:28;48.67;;;23.33;;
66298;SDS011;53098;47.658;8.578;2022-12-18T09:12:53;49.33;;;21.77;;
66298;SDS011;53098;47.658;8.578;2022-12-18T09:15:19;47.97;;;22.20;;
66298;SDS011;53098;47.658;8.578;2022-12-18T09:17:44;53.60;;;22.50;;
66298;SDS011;53098;47.658;8.578;2022-12-18T09:20:09;52.93;;;23.80;;
66298;SDS011;53098;47.658;8.578;2022-12-18T09:22:34;53.28;;;22.65;;
66298;SDS011;53098;47.658;8.578;2022-12-18T09:25:00;53.57;;;23.93;;
66298;SDS011;53098;47.658;8.578;2022-12-18T09:27:25;48.67;;;23.20;;
66298;SDS011;53098;47.658;8.578;2022-12-18T09:29:50;53.67;;;23.17;;
66298;SDS011;53098;47.658;8.578;2022-12-18T09:32:16;48.10;;;22.73;;
66298;SDS011;53098;47.658;8.578;2022-12-18T09:34:41;50.70;;;22.60;;
66298;SDS011;53098;47.658;8.578;2022-12-18T09:37:06;51.93;;;25.63;;
66298;SDS011;53098;47.658;8.578;2022-12-18T09:39:31;49.73;;;22.40;;
66298;SDS011;53098;47.658;8.578;2022-12-18T09:41:57;48.40;;;22.17;;
66298;SDS011;53098;47.658;8.578;2022-12-18T09:44:31;49.65;;;23.50;;
66298;SDS011;53098;47.658;8.578;2022-12-18T09:49:33;52.15;;;23.10;;
66298;SDS011;53098;47.658;8.578;2022-12-18T09:52:09;51.30;;;23.88;;
66298;SDS011;53098;47.658;8.578;2022-12-18T09:54:38;47.75;;;21.55;;
66298;SDS011;53098;47.658;8.578;2022-12-18T09:57:04;48.10;;;22.00;;
66298;SDS011;53098;47.658;8.578;2022-12-18T09:59:32;46.67;;;21.80;;
66298;SDS011;53098;47.658;8.578;2022-12-18T10:01:59;45.00;;;22.50;;
66298;SDS011;53098;47.658;8.578;2022-12-18T10:04:24;47.33;;;22.03;;
66298;SDS011;53098;47.658;8.578;2022-12-18T10:06:55;47.38;;;21.52;;
66298;SDS011;53098;47.658;8.578;2022-12-18T10:09:28;48.92;;;22.67;;
66298;SDS011;53098;47.658;8.578;2022-12-18T10:14:33;48.67;;;24.20;;
66298;SDS011;53098;47.658;8.578;2022-12-18T10:17:20;49.33;;;22.10;;
66298;SDS011;53098;47.658;8.578;2022-12-18T10:19:59;48.13;;;23.55;;
66298;SDS011;53098;47.658;8.578;2022-12-18T10:27:44;47.58;;;23.67;;
66298;SDS011;53098;47.658;8.578;2022-12-18T10:30:13;52.03;;;24.05;;
66298;SDS011;53098;47.658;8.578;2022-12-18T10:32:39;47.22;;;22.65;;
66298;SDS011;53098;47.658;8.578;2022-12-18T10:35:04;51.67;;;23.90;;
66298;SDS011;53098;47.658;8.578;2022-12-18T10:37:30;54.17;;;25.73;;
66298;SDS011;53098;47.658;8.578;2022-12-18T10:40:14;50.27;;;22.93;;
66298;SDS011;53098;47.658;8.578;2022-12-18T10:42:40;51.33;;;21.67;;
66298;SDS011;53098;47.658;8.578;2022-12-18T10:45:23;47.83;;;21.52;;
66298;SDS011;53098;47.658;8.578;2022-12-18T10:47:49;64.72;;;30.25;;
66298;SDS011;53098;47.658;8.578;2022-12-18T10:50:29;46.60;;;23.42;;
66298;SDS011;53098;47.658;8.578;2022-12-18T10:52:58;50.67;;;23.67;;
66298;SDS011;53098;47.658;8.578;2022-12-18T10:55:24;49.58;;;22.85;;
66298;SDS011;53098;47.658;8.578;2022-12-18T10:57:52;49.33;;;21.90;;
66298;SDS011;53098;47.658;8.578;2022-12-18T11:00:35;47.33;;;22.87;;
66298;SDS011;53098;47.658;8.578;2022-12-18T11:03:01;46.33;;;22.80;;
66298;SDS011;53098;47.658;8.578;2022-12-18T11:05:32;48.90;;;23.17;;
66298;SDS011;53098;47.658;8.578;2022-12-18T11:07:58;44.47;;;20.55;;
66298;SDS011;53098;47.658;8.578;2022-12-18T11:10:26;44.72;;;21.73;;
66298;SDS011;53098;47.658;8.578;2022-12-18T11:12:53;44.47;;;22.58;;
66298;SDS011;53098;47.658;8.578;2022-12-18T11:15:23;47.63;;;23.05;;
66298;SDS011;53098;47.658;8.578;2022-12-18T11:17:50;47.33;;;22.45;;
66298;SDS011;53098;47.658;8.578;2022-12-18T11:22:44;41.67;;;21.00;;
66298;SDS011;53098;47.658;8.578;2022-12-18T11:25:19;47.15;;;22.88;;
66298;SDS011;53098;47.658;8.578;2022-12-18T11:27:48;51.05;;;23.30;;
66298;SDS011;53098;47.658;8.578;2022-12-18T11:30:24;42.15;;;21.85;;
66298;SDS011;53098;47.658;8.578;2022-12-18T11:32:51;48.45;;;21.65;;
66298;SDS011;53098;47.658;8.578;2022-12-18T11:35:19;47.45;;;21.77;;
66298;SDS011;53098;47.658;8.578;2022-12-18T11:37:47;45.83;;;20.70;;
66298;SDS011;53098;47.658;8.578;2022-12-18T11:40:15;42.78;;;21.55;;
66298;SDS011;53098;47.658;8.578;2022-12-18T11:42:44;47.13;;;21.88;;
66298;SDS011;53098;47.658;8.578;2022-12-18T11:47:44;48.87;;;23.63;;
66298;SDS011;53098;47.658;8.578;2022-12-18T11:50:28;48.75;;;23.25;;
66298;SDS011;53098;47.658;8.578;2022-12-18T11:52:54;44.45;;;21.55;;
66298;SDS011;53098;47.658;8.578;2022-12-18T11:55:29;41.57;;;21.37;;
66298;SDS011;53098;47.658;8.578;2022-12-18T11:58:13;42.60;;;21.50;;
66298;SDS011;53098;47.658;8.578;2022-12-18T12:00:43;44.05;;;21.85;;
66298;SDS011;53098;47.658;8.578;2022-12-18T12:03:17;44.58;;;20.95;;
66298;SDS011;53098;47.658;8.578;2022-12-18T12:05:46;49.65;;;22.92;;
66298;SDS011;53098;47.658;8.578;2022-12-18T12:08:16;49.33;;;23.08;;
66298;SDS011;53098;47.658;8.578;2022-12-18T12:13:23;43.85;;;22.42;;
66298;SDS011;53098;47.658;8.578;2022-12-18T12:15:54;43.40;;;22.02;;
66298;SDS011;53098;47.658;8.578;2022-12-18T12:18:36;49.05;;;22.52;;
66298;SDS011;53098;47.658;8.578;2022-12-18T12:32:01;50.55;;;22.42;;
66298;SDS011;53098;47.658;8.578;2022-12-18T12:34:31;48.25;;;22.25;;
66298;SDS011;53098;47.658;8.578;2022-12-18T12:37:20;45.08;;;23.30;;
66298;SDS011;53098;47.658;8.578;2022-12-18T12:39:50;44.08;;;21.55;;
66298;SDS011;53098;47.658;8.578;2022-12-18T12:42:18;53.33;;;21.88;;
66298;SDS011;53098;47.658;8.578;2022-12-18T12:44:48;44.05;;;21.10;;
66298;SDS011;53098;47.658;8.578;2022-12-18T12:47:28;48.13;;;22.48;;
66298;SDS011;53098;47.658;8.578;2022-12-18T12:49:56;49.53;;;22.95;;
66298;SDS011;53098;47.658;8.578;2022-12-18T12:52:42;45.75;;;24.15;;
66298;SDS011;53098;47.658;8.578;2022-12-18T12:55:13;46.47;;;22.45;;
66298;SDS011;53098;47.658;8.578;2022-12-18T12:57:51;49.95;;;24.75;;
66298;SDS011;53098;47.658;8.578;2022-12-18T13:00:19;45.05;;;22.83;;
66298;SDS011;53098;47.658;8.578;2022-12-18T13:03:06;49.20;;;21.38;;
66298;SDS011;53098;47.658;8.578;2022-12-18T13:05:54;41.70;;;20.23;;
66298;SDS011;53098;47.658;8.578;2022-12-18T13:08:24;43.75;;;20.60;;
66298;SDS011;53098;47.658;8.578;2022-12-18T13:10:51;40.08;;;21.60;;
66298;SDS011;53098;47.658;8.578;2022-12-18T13:13:17;45.53;;;21.65;;
66298;SDS011;53098;47.658;8.578;2022-12-18T13:15:43;45.40;;;21.13;;
66298;SDS011;53098;47.658;8.578;2022-12-18T13:20:35;44.75;;;21.95;;
66298;SDS011;53098;47.658;8.578;2022-12-18T13:23:01;47.30;;;22.52;;
66298;SDS011;53098;47.658;8.578;2022-12-18T13:25:31;47.10;;;21.63;;
66298;SDS011;53098;47.658;8.578;2022-12-18T13:27:59;49.67;;;22.67;;
66298;SDS011;53098;47.658;8.578;2022-12-18T13:40:55;46.72;;;20.85;;
66298;SDS011;53098;47.658;8.578;2022-12-18T13:45:50;48.20;;;22.67;;
66298;SDS011;53098;47.658;8.578;2022-12-18T13:48:24;46.92;;;21.70;;
66298;SDS011;53098;47.658;8.578;2022-12-18T13:50:55;46.17;;;22.27;;
66298;SDS011;53098;47.658;8.578;2022-12-18T13:53:23;48.50;;;21.80;;
66298;SDS011;53098;47.658;8.578;2022-12-18T13:55:52;48.85;;;22.17;;
66298;SDS011;53098;47.658;8.578;2022-12-18T13:58:17;49.30;;;22.42;;
66298;SDS011;53098;47.658;8.578;2022-12-18T14:00:43;47.53;;;22.53;;
66298;SDS011;53098;47.658;8.578;2022-12-18T14:03:22;48.55;;;23.38;;
66298;SDS011;53098;47.658;8.578;2022-12-18T14:05:52;49.75;;;22.88;;
66298;SDS011;53098;47.658;8.578;2022-12-18T14:08:18;51.78;;;23.90;;
66298;SDS011;53098;47.658;8.578;2022-12-18T14:10:44;48.50;;;21.50;;
66298;SDS011;53098;47.658;8.578;2022-12-18T14:13:11;47.22;;;22.90;;
66298;SDS011;53098;47.658;8.578;2022-12-18T14:15:41;52.55;;;24.48;;
66298;SDS011;53098;47.658;8.578;2022-12-18T14:23:30;43.53;;;21.23;;
66298;SDS011;53098;47.658;8.578;2022-12-18T14:25:56;46.97;;;20.55;;
66298;SDS011;53098;47.658;8.578;2022-12-18T14:28:22;46.08;;;23.23;;
66298;SDS011;53098;47.658;8.578;2022-12-18T14:30:47;50.70;;;21.97;;
66298;SDS011;53098;47.658;8.578;2022-12-18T14:33:14;49.53;;;23.08;;
66298;SDS011;53098;47.658;8.578;2022-12-18T14:35:41;47.15;;;21.77;;
66298;SDS011;53098;47.658;8.578;2022-12-18T14:40:41;51.60;;;23.17;;
66298;SDS011;53098;47.658;8.578;2022-12-18T14:43:08;45.88;;;20.38;;
66298;SDS011;53098;47.658;8.578;2022-12-18T14:47:59;49.87;;;22.80;;
66298;SDS011;53098;47.658;8.578;2022-12-18T14:50:24;48.50;;;22.80;;
66298;SDS011;53098;47.658;8.578;2022-12-18T14:52:50;51.45;;;23.10;;
66298;SDS011;53098;47.658;8.578;2022-12-18T14:55:18;48.40;;;22.48;;
66298;SDS011;53098;47.658;8.578;2022-12-18T14:57:44;47.08;;;20.88;;
66298;SDS011;53098;47.658;8.578;2022-12-18T15:00:17;51.42;;;23.92;;
66298;SDS011;53098;47.658;8.578;2022-12-18T15:02:43;46.80;;;22.52;;
66298;SDS011;53098;47.658;8.578;2022-12-18T15:07:44;48.78;;;22.88;;
66298;SDS011;53098;47.658;8.578;2022-12-18T15:10:14;46.35;;;21.73;;
66298;SDS011;53098;47.658;8.578;2022-12-18T15:15:43;45.50;;;21.63;;
66298;SDS011;53098;47.658;8.578;2022-12-18T15:18:00;47.40;;;21.45;;
66298;SDS011;53098;47.658;8.578;2022-12-18T15:20:25;46.83;;;20.98;;
66298;SDS011;53098;47.658;8.578;2022-12-18T15:22:50;51.73;;;22.07;;
66298;SDS011;53098;47.658;8.578;2022-12-18T15:25:23;47.60;;;21.67;;
66298;SDS011;53098;47.658;8.578;2022-12-18T15:27:50;47.67;;;23.10;;
66298;SDS011;53098;47.658;8.578;2022-12-18T15:30:19;43.27;;;21.20;;
66298;SDS011;53098;47.658;8.578;2022-12-18T15:32:45;50.33;;;22.65;;
66298;SDS011;53098;47.658;8.578;2022-12-18T15:37:37;48.63;;;22.33;;
66298;SDS011;53098;47.658;8.578;2022-12-18T15:40:02;50.13;;;23.55;;
66298;SDS011;53098;47.658;8.578;2022-12-18T15:42:28;46.65;;;22.58;;
66298;SDS011;53098;47.658;8.578;2022-12-18T15:44:53;49.47;;;21.92;;
66298;SDS011;53098;47.658;8.578;2022-12-18T15:47:19;48.87;;;22.57;;
66298;SDS011;53098;47.658;8.578;2022-12-18T15:49:44;45.67;;;21.60;;